sensor_id;sensor_type;location;lat;lon;timestamp;temperature;humidity
47162;DHT22;32921;53.256;8.198;2022-12-07T00:00:55;3.60;99.90
47162;DHT22;32921;53.256;8.198;2022-12-07T00:03:28;3.60;99.90
47162;DHT22;32921;53.256;8.198;2022-12-07T00:05:57;3.60;99.90
47162;DHT22;32921;53.256;8.198;2022-12-07T00:08:23;3.60;99.90
47162;DHT22;32921;53.256;8.198;2022-12-07T00:10:48;3.70;99.90
47162;DHT22;32921;53.256;8.198;2022-12-07T00:13:14;3.70;99.90
47162;DHT22;32921;53.256;8.198;2022-12-07T00:15:39;3.70;99.90
47162;DHT22;32921;53.256;8.198;2022-12-07T00:18:05;3.70;99.90
47162;DHT22;32921;53.256;8.198;2022-12-07T00:20:30;3.70;99.90
47162;DHT22;32921;53.256;8.198;2022-12-07T00:22:56;3.80;99.90
47162;DHT22;32921;53.256;8.198;2022-12-07T00:25:22;3.80;99.90
47162;DHT22;32921;53.256;8.198;2022-12-07T00:27:47;3.80;99.90
47162;DHT22;32921;53.256;8.198;2022-12-07T00:30:13;3.80;99.90
47162;DHT22;32921;53.256;8.198;2022-12-07T00:32:39;3.70;99.90
47162;DHT22;32921;53.256;8.198;2022-12-07T00:35:04;3.60;99.90
47162;DHT22;32921;53.256;8.198;2022-12-07T00:37:30;3.60;99.90
47162;DHT22;32921;53.256;8.198;2022-12-07T00:39:56;3.50;99.90
47162;DHT22;32921;53.256;8.198;2022-12-07T00:42:21;3.40;99.90
47162;DHT22;32921;53.256;8.198;2022-12-07T00:44:47;3.40;99.90
47162;DHT22;32921;53.256;8.198;2022-12-07T00:47:12;3.30;99.90
47162;DHT22;32921;53.256;8.198;2022-12-07T00:49:38;3.20;99.90
47162;DHT22;32921;53.256;8.198;2022-12-07T00:52:03;3.10;99.90
47162;DHT22;32921;53.256;8.198;2022-12-07T00:54:29;3.00;99.90
47162;DHT22;32921;53.256;8.198;2022-12-07T00:56:54;3.00;99.90
47162;DHT22;32921;53.256;8.198;2022-12-07T00:59:20;2.80;99.90
47162;DHT22;32921;53.256;8.198;2022-12-07T01:01:46;2.60;99.90
47162;DHT22;32921;53.256;8.198;2022-12-07T01:04:11;2.50;99.90
47162;DHT22;32921;53.256;8.198;2022-12-07T01:06:37;2.50;99.90
47162;DHT22;32921;53.256;8.198;2022-12-07T01:09:03;2.60;99.90
47162;DHT22;32921;53.256;8.198;2022-12-07T01:11:30;2.60;99.90
47162;DHT22;32921;53.256;8.198;2022-12-07T01:13:58;2.60;99.90
47162;DHT22;32921;53.256;8.198;2022-12-07T01:16:25;2.60;99.90
47162;DHT22;32921;53.256;8.198;2022-12-07T01:18:52;2.60;99.90
47162;DHT22;32921;53.256;8.198;2022-12-07T01:21:38;2.60;99.90
47162;DHT22;32921;53.256;8.198;2022-12-07T01:24:05;2.60;99.90
47162;DHT22;32921;53.256;8.198;2022-12-07T01:26:32;2.70;99.90
47162;DHT22;32921;53.256;8.198;2022-12-07T01:28:57;2.70;99.90
47162;DHT22;32921;53.256;8.198;2022-12-07T01:31:25;2.80;99.90
47162;DHT22;32921;53.256;8.198;2022-12-07T01:33:59;2.80;99.90
47162;DHT22;32921;53.256;8.198;2022-12-07T01:36:33;2.70;99.90
47162;DHT22;32921;53.256;8.198;2022-12-07T01:39:02;2.70;99.90
47162;DHT22;32921;53.256;8.198;2022-12-07T01:41:31;2.80;99.90
47162;DHT22;32921;53.256;8.198;2022-12-07T01:44:22;2.70;99.90
47162;DHT22;32921;53.256;8.198;2022-12-07T01:46:53;2.70;99.90
47162;DHT22;32921;53.256;8.198;2022-12-07T01:49:31;2.70;99.90
47162;DHT22;32921;53.256;8.198;2022-12-07T01:52:25;2.70;99.90
47162;DHT22;32921;53.256;8.198;2022-12-07T01:54:56;2.70;99.90
47162;DHT22;32921;53.256;8.198;2022-12-07T01:57:23;2.80;99.90
47162;DHT22;32921;53.256;8.198;2022-12-07T01:59:49;2.80;99.90
47162;DHT22;32921;53.256;8.198;2022-12-07T02:02:37;2.90;99.90
47162;DHT22;32921;53.256;8.198;2022-12-07T02:05:04;3.00;99.90
47162;DHT22;32921;53.256;8.198;2022-12-07T02:07:32;3.10;99.90
47162;DHT22;32921;53.256;8.198;2022-12-07T02:10:17;3.10;99.90
47162;DHT22;32921;53.256;8.198;2022-12-07T02:12:49;3.20;99.90
47162;DHT22;32921;53.256;8.198;2022-12-07T02:15:16;3.20;99.90
47162;DHT22;32921;53.256;8.198;2022-12-07T02:17:48;3.30;99.90
47162;DHT22;32921;53.256;8.198;2022-12-07T02:23:29;3.30;99.90
47162;DHT22;32921;53.256;8.198;2022-12-07T02:31:36;3.10;99.90
47162;DHT22;32921;53.256;8.198;2022-12-07T02:34:11;3.00;99.90
47162;DHT22;32921;53.256;8.198;2022-12-07T02:36:43;2.90;99.90
47162;DHT22;32921;53.256;8.198;2022-12-07T02:39:17;2.90;99.90
47162;DHT22;32921;53.256;8.198;2022-12-07T02:41:47;2.80;99.90
47162;DHT22;32921;53.256;8.198;2022-12-07T02:44:17;2.70;99.90
47162;DHT22;32921;53.256;8.198;2022-12-07T02:46:54;2.60;99.90
47162;DHT22;32921;53.256;8.198;2022-12-07T02:49:24;2.40;99.90
47162;DHT22;32921;53.256;8.198;2022-12-07T02:51:49;2.40;99.90
47162;DHT22;32921;53.256;8.198;2022-12-07T02:54:17;2.40;99.90
47162;DHT22;32921;53.256;8.198;2022-12-07T02:56:49;2.40;99.90
47162;DHT22;32921;53.256;8.198;2022-12-07T02:59:45;2.50;99.90
47162;DHT22;32921;53.256;8.198;2022-12-07T03:02:35;2.60;99.90
47162;DHT22;32921;53.256;8.198;2022-12-07T03:05:13;2.60;99.90
47162;DHT22;32921;53.256;8.198;2022-12-07T03:08:05;2.70;99.90
47162;DHT22;32921;53.256;8.198;2022-12-07T03:13:49;2.50;99.90
47162;DHT22;32921;53.256;8.198;2022-12-07T03:16:21;2.30;99.90
47162;DHT22;32921;53.256;8.198;2022-12-07T03:18:59;2.30;99.90
47162;DHT22;32921;53.256;8.198;2022-12-07T03:24:21;2.20;99.90
47162;DHT22;32921;53.256;8.198;2022-12-07T03:27:09;2.30;99.90
47162;DHT22;32921;53.256;8.198;2022-12-07T03:29:40;2.50;99.90
47162;DHT22;32921;53.256;8.198;2022-12-07T03:32:22;2.50;99.90
47162;DHT22;32921;53.256;8.198;2022-12-07T03:35:01;2.40;99.90
47162;DHT22;32921;53.256;8.198;2022-12-07T03:37:54;2.30;99.90
47162;DHT22;32921;53.256;8.198;2022-12-07T03:40:37;2.10;99.90
47162;DHT22;32921;53.256;8.198;2022-12-07T03:43:05;1.90;99.90
47162;DHT22;32921;53.256;8.198;2022-12-07T03:45:42;1.80;99.90
47162;DHT22;32921;53.256;8.198;2022-12-07T03:48:22;1.50;99.90
47162;DHT22;32921;53.256;8.198;2022-12-07T03:50:54;1.40;99.90
47162;DHT22;32921;53.256;8.198;2022-12-07T03:53:31;1.40;99.90
47162;DHT22;32921;53.256;8.198;2022-12-07T03:55:59;1.30;99.90
47162;DHT22;32921;53.256;8.198;2022-12-07T03:58:25;1.20;99.90
47162;DHT22;32921;53.256;8.198;2022-12-07T04:00:52;1.40;99.90
47162;DHT22;32921;53.256;8.198;2022-12-07T04:03:17;1.60;99.90
47162;DHT22;32921;53.256;8.198;2022-12-07T04:05:44;1.90;99.90
47162;DHT22;32921;53.256;8.198;2022-12-07T04:08:09;1.90;99.90
47162;DHT22;32921;53.256;8.198;2022-12-07T04:10:35;1.90;99.90
47162;DHT22;32921;53.256;8.198;2022-12-07T04:13:01;1.80;99.90
47162;DHT22;32921;53.256;8.198;2022-12-07T04:15:26;1.80;99.90
47162;DHT22;32921;53.256;8.198;2022-12-07T04:17:52;1.80;99.90
47162;DHT22;32921;53.256;8.198;2022-12-07T04:20:18;1.90;99.90
47162;DHT22;32921;53.256;8.198;2022-12-07T04:22:43;2.00;99.90
47162;DHT22;32921;53.256;8.198;2022-12-07T04:25:09;2.20;99.90
47162;DHT22;32921;53.256;8.198;2022-12-07T04:27:34;2.40;99.90
47162;DHT22;32921;53.256;8.198;2022-12-07T04:30:00;2.40;99.90
47162;DHT22;32921;53.256;8.198;2022-12-07T04:32:25;2.30;99.90
47162;DHT22;32921;53.256;8.198;2022-12-07T04:34:51;2.20;99.90
47162;DHT22;32921;53.256;8.198;2022-12-07T04:37:17;2.10;99.90
47162;DHT22;32921;53.256;8.198;2022-12-07T04:39:43;2.20;99.90
47162;DHT22;32921;53.256;8.198;2022-12-07T04:42:10;2.30;99.90
47162;DHT22;32921;53.256;8.198;2022-12-07T04:44:36;2.30;99.90
47162;DHT22;32921;53.256;8.198;2022-12-07T04:47:01;2.30;99.90
47162;DHT22;32921;53.256;8.198;2022-12-07T04:49:27;2.30;99.90
47162;DHT22;32921;53.256;8.198;2022-12-07T04:51:53;2.40;99.90
47162;DHT22;32921;53.256;8.198;2022-12-07T04:54:19;2.30;99.90
47162;DHT22;32921;53.256;8.198;2022-12-07T04:56:45;2.40;99.90
47162;DHT22;32921;53.256;8.198;2022-12-07T04:59:12;2.50;99.90
47162;DHT22;32921;53.256;8.198;2022-12-07T05:01:38;2.40;99.90
47162;DHT22;32921;53.256;8.198;2022-12-07T05:04:04;2.40;99.90
47162;DHT22;32921;53.256;8.198;2022-12-07T05:06:29;2.30;99.90
47162;DHT22;32921;53.256;8.198;2022-12-07T05:08:55;2.30;99.90
47162;DHT22;32921;53.256;8.198;2022-12-07T05:11:21;2.20;99.90
47162;DHT22;32921;53.256;8.198;2022-12-07T05:14:19;2.30;99.90
47162;DHT22;32921;53.256;8.198;2022-12-07T05:16:47;2.30;99.90
47162;DHT22;32921;53.256;8.198;2022-12-07T05:19:13;2.30;99.90
47162;DHT22;32921;53.256;8.198;2022-12-07T05:21:38;2.40;99.90
47162;DHT22;32921;53.256;8.198;2022-12-07T05:24:05;2.50;99.90
47162;DHT22;32921;53.256;8.198;2022-12-07T05:26:31;2.60;99.90
47162;DHT22;32921;53.256;8.198;2022-12-07T05:28:56;2.60;99.90
47162;DHT22;32921;53.256;8.198;2022-12-07T05:31:24;2.60;99.90
47162;DHT22;32921;53.256;8.198;2022-12-07T05:33:50;2.60;99.90
47162;DHT22;32921;53.256;8.198;2022-12-07T05:36:16;2.50;99.90
47162;DHT22;32921;53.256;8.198;2022-12-07T05:38:41;2.50;99.90
47162;DHT22;32921;53.256;8.198;2022-12-07T05:41:08;2.50;99.90
47162;DHT22;32921;53.256;8.198;2022-12-07T05:43:56;2.40;99.90
47162;DHT22;32921;53.256;8.198;2022-12-07T05:46:22;2.30;99.90
47162;DHT22;32921;53.256;8.198;2022-12-07T05:48:48;2.20;99.90
47162;DHT22;32921;53.256;8.198;2022-12-07T05:51:13;2.20;99.90
47162;DHT22;32921;53.256;8.198;2022-12-07T05:53:39;2.20;99.90
47162;DHT22;32921;53.256;8.198;2022-12-07T05:56:04;2.40;99.90
47162;DHT22;32921;53.256;8.198;2022-12-07T05:58:30;2.50;99.90
47162;DHT22;32921;53.256;8.198;2022-12-07T06:01:14;2.50;99.90
47162;DHT22;32921;53.256;8.198;2022-12-07T06:03:40;2.50;99.90
47162;DHT22;32921;53.256;8.198;2022-12-07T06:06:05;2.60;99.90
47162;DHT22;32921;53.256;8.198;2022-12-07T06:08:31;2.70;99.90
47162;DHT22;32921;53.256;8.198;2022-12-07T06:10:56;2.70;99.90
47162;DHT22;32921;53.256;8.198;2022-12-07T06:13:40;2.80;99.90
47162;DHT22;32921;53.256;8.198;2022-12-07T06:16:06;2.70;99.90
47162;DHT22;32921;53.256;8.198;2022-12-07T06:18:32;2.60;99.90
47162;DHT22;32921;53.256;8.198;2022-12-07T06:20:58;2.60;99.90
47162;DHT22;32921;53.256;8.198;2022-12-07T06:23:23;2.70;99.90
47162;DHT22;32921;53.256;8.198;2022-12-07T06:25:49;2.70;99.90
47162;DHT22;32921;53.256;8.198;2022-12-07T06:28:14;2.80;99.90
47162;DHT22;32921;53.256;8.198;2022-12-07T06:30:40;2.80;99.90
47162;DHT22;32921;53.256;8.198;2022-12-07T06:33:05;2.80;99.90
47162;DHT22;32921;53.256;8.198;2022-12-07T06:35:32;2.80;99.90
47162;DHT22;32921;53.256;8.198;2022-12-07T06:37:58;2.80;99.90
47162;DHT22;32921;53.256;8.198;2022-12-07T06:40:24;2.80;99.90
47162;DHT22;32921;53.256;8.198;2022-12-07T06:42:49;2.80;99.90
47162;DHT22;32921;53.256;8.198;2022-12-07T06:45:15;2.80;99.90
47162;DHT22;32921;53.256;8.198;2022-12-07T06:47:41;2.80;99.90
47162;DHT22;32921;53.256;8.198;2022-12-07T06:50:07;2.80;99.90
47162;DHT22;32921;53.256;8.198;2022-12-07T06:52:33;2.70;99.90
47162;DHT22;32921;53.256;8.198;2022-12-07T06:54:59;2.70;99.90
47162;DHT22;32921;53.256;8.198;2022-12-07T06:57:25;2.60;99.90
47162;DHT22;32921;53.256;8.198;2022-12-07T06:59:50;2.40;99.90
47162;DHT22;32921;53.256;8.198;2022-12-07T07:02:16;2.20;99.90
47162;DHT22;32921;53.256;8.198;2022-12-07T07:04:42;2.00;99.90
47162;DHT22;32921;53.256;8.198;2022-12-07T07:07:07;1.80;99.90
47162;DHT22;32921;53.256;8.198;2022-12-07T07:09:33;1.70;99.90
47162;DHT22;32921;53.256;8.198;2022-12-07T07:11:58;1.60;99.90
47162;DHT22;32921;53.256;8.198;2022-12-07T07:14:24;1.50;99.90
47162;DHT22;32921;53.256;8.198;2022-12-07T07:16:50;1.40;99.90
47162;DHT22;32921;53.256;8.198;2022-12-07T07:19:15;1.30;99.90
47162;DHT22;32921;53.256;8.198;2022-12-07T07:21:41;1.30;99.90
47162;DHT22;32921;53.256;8.198;2022-12-07T07:24:06;1.30;99.90
47162;DHT22;32921;53.256;8.198;2022-12-07T07:26:32;1.40;99.90
47162;DHT22;32921;53.256;8.198;2022-12-07T07:28:58;1.60;99.90
47162;DHT22;32921;53.256;8.198;2022-12-07T07:31:23;1.70;99.90
47162;DHT22;32921;53.256;8.198;2022-12-07T07:33:49;1.80;99.90
47162;DHT22;32921;53.256;8.198;2022-12-07T07:36:14;2.00;99.90
47162;DHT22;32921;53.256;8.198;2022-12-07T07:38:40;2.20;99.90
47162;DHT22;32921;53.256;8.198;2022-12-07T07:41:05;2.30;99.90
47162;DHT22;32921;53.256;8.198;2022-12-07T07:43:32;2.30;99.90
47162;DHT22;32921;53.256;8.198;2022-12-07T07:45:57;2.30;99.90
47162;DHT22;32921;53.256;8.198;2022-12-07T07:48:23;2.40;99.90
47162;DHT22;32921;53.256;8.198;2022-12-07T07:50:50;2.40;99.90
47162;DHT22;32921;53.256;8.198;2022-12-07T07:53:16;2.40;99.90
47162;DHT22;32921;53.256;8.198;2022-12-07T07:55:49;2.50;99.90
47162;DHT22;32921;53.256;8.198;2022-12-07T07:58:15;2.50;99.90
47162;DHT22;32921;53.256;8.198;2022-12-07T08:00:40;2.40;99.90
47162;DHT22;32921;53.256;8.198;2022-12-07T08:03:06;2.40;99.90
47162;DHT22;32921;53.256;8.198;2022-12-07T08:05:31;2.40;99.90
47162;DHT22;32921;53.256;8.198;2022-12-07T08:07:57;2.40;99.90
47162;DHT22;32921;53.256;8.198;2022-12-07T08:10:23;2.50;99.90
47162;DHT22;32921;53.256;8.198;2022-12-07T08:12:48;2.50;99.90
47162;DHT22;32921;53.256;8.198;2022-12-07T08:15:32;2.70;99.90
47162;DHT22;32921;53.256;8.198;2022-12-07T08:17:58;2.80;99.90
47162;DHT22;32921;53.256;8.198;2022-12-07T08:20:24;2.80;99.90
47162;DHT22;32921;53.256;8.198;2022-12-07T08:22:50;2.80;99.90
47162;DHT22;32921;53.256;8.198;2022-12-07T08:25:15;2.90;99.90
47162;DHT22;32921;53.256;8.198;2022-12-07T08:27:41;3.10;99.90
47162;DHT22;32921;53.256;8.198;2022-12-07T08:30:07;3.10;99.90
47162;DHT22;32921;53.256;8.198;2022-12-07T08:32:32;3.00;99.90
47162;DHT22;32921;53.256;8.198;2022-12-07T08:34:58;2.90;99.90
47162;DHT22;32921;53.256;8.198;2022-12-07T08:37:24;2.90;99.90
47162;DHT22;32921;53.256;8.198;2022-12-07T08:39:49;2.90;99.90
47162;DHT22;32921;53.256;8.198;2022-12-07T08:42:15;3.00;99.90
47162;DHT22;32921;53.256;8.198;2022-12-07T08:44:40;3.10;99.90
47162;DHT22;32921;53.256;8.198;2022-12-07T08:47:06;3.20;99.90
47162;DHT22;32921;53.256;8.198;2022-12-07T08:49:38;3.20;99.90
47162;DHT22;32921;53.256;8.198;2022-12-07T08:52:05;3.10;99.90
47162;DHT22;32921;53.256;8.198;2022-12-07T08:54:31;3.10;99.90
47162;DHT22;32921;53.256;8.198;2022-12-07T08:56:59;3.20;99.90
47162;DHT22;32921;53.256;8.198;2022-12-07T08:59:25;3.10;99.90
47162;DHT22;32921;53.256;8.198;2022-12-07T09:01:51;3.00;99.90
47162;DHT22;32921;53.256;8.198;2022-12-07T09:04:17;2.80;99.90
47162;DHT22;32921;53.256;8.198;2022-12-07T09:06:42;2.70;99.90
47162;DHT22;32921;53.256;8.198;2022-12-07T09:09:09;2.70;99.90
47162;DHT22;32921;53.256;8.198;2022-12-07T09:11:35;2.80;99.90
47162;DHT22;32921;53.256;8.198;2022-12-07T09:14:01;3.20;99.90
47162;DHT22;32921;53.256;8.198;2022-12-07T09:16:26;3.60;99.90
47162;DHT22;32921;53.256;8.198;2022-12-07T09:18:52;3.90;99.90
47162;DHT22;32921;53.256;8.198;2022-12-07T09:21:18;4.00;99.90
47162;DHT22;32921;53.256;8.198;2022-12-07T09:23:43;3.80;99.90
47162;DHT22;32921;53.256;8.198;2022-12-07T09:26:09;3.70;99.90
47162;DHT22;32921;53.256;8.198;2022-12-07T09:28:34;3.50;99.90
47162;DHT22;32921;53.256;8.198;2022-12-07T09:31:00;3.50;99.90
47162;DHT22;32921;53.256;8.198;2022-12-07T09:33:25;3.40;99.90
47162;DHT22;32921;53.256;8.198;2022-12-07T09:35:52;3.60;99.90
47162;DHT22;32921;53.256;8.198;2022-12-07T09:38:19;3.60;99.90
47162;DHT22;32921;53.256;8.198;2022-12-07T09:40:45;3.70;99.90
47162;DHT22;32921;53.256;8.198;2022-12-07T09:43:19;3.70;99.90
47162;DHT22;32921;53.256;8.198;2022-12-07T09:45:48;3.70;99.90
47162;DHT22;32921;53.256;8.198;2022-12-07T09:48:18;3.80;99.90
47162;DHT22;32921;53.256;8.198;2022-12-07T09:50:46;4.00;99.90
47162;DHT22;32921;53.256;8.198;2022-12-07T09:53:23;3.90;99.90
47162;DHT22;32921;53.256;8.198;2022-12-07T09:55:50;3.90;99.90
47162;DHT22;32921;53.256;8.198;2022-12-07T09:58:23;3.80;99.90
47162;DHT22;32921;53.256;8.198;2022-12-07T10:00:55;3.80;99.90
47162;DHT22;32921;53.256;8.198;2022-12-07T10:03:22;3.80;99.90
47162;DHT22;32921;53.256;8.198;2022-12-07T10:05:50;3.80;99.90
47162;DHT22;32921;53.256;8.198;2022-12-07T10:08:16;3.70;99.90
47162;DHT22;32921;53.256;8.198;2022-12-07T10:10:44;3.80;99.90
47162;DHT22;32921;53.256;8.198;2022-12-07T10:13:17;3.80;99.90
47162;DHT22;32921;53.256;8.198;2022-12-07T10:15:53;3.80;99.90
47162;DHT22;32921;53.256;8.198;2022-12-07T10:18:34;3.90;99.90
47162;DHT22;32921;53.256;8.198;2022-12-07T10:21:03;4.20;99.90
47162;DHT22;32921;53.256;8.198;2022-12-07T10:23:29;4.30;99.90
47162;DHT22;32921;53.256;8.198;2022-12-07T10:25:55;4.30;99.90
47162;DHT22;32921;53.256;8.198;2022-12-07T10:28:21;4.40;99.90
47162;DHT22;32921;53.256;8.198;2022-12-07T10:30:53;4.50;99.90
47162;DHT22;32921;53.256;8.198;2022-12-07T10:33:37;4.50;99.90
47162;DHT22;32921;53.256;8.198;2022-12-07T10:36:39;4.40;99.90
47162;DHT22;32921;53.256;8.198;2022-12-07T10:39:16;4.40;99.90
47162;DHT22;32921;53.256;8.198;2022-12-07T10:42:00;4.50;99.90
47162;DHT22;32921;53.256;8.198;2022-12-07T10:44:32;4.60;99.90
47162;DHT22;32921;53.256;8.198;2022-12-07T10:47:33;4.60;99.90
47162;DHT22;32921;53.256;8.198;2022-12-07T10:52:55;4.70;99.90
47162;DHT22;32921;53.256;8.198;2022-12-07T10:55:41;4.70;99.90
47162;DHT22;32921;53.256;8.198;2022-12-07T11:01:40;4.70;99.90
47162;DHT22;32921;53.256;8.198;2022-12-07T11:04:39;4.70;99.90
47162;DHT22;32921;53.256;8.198;2022-12-07T11:13:18;4.30;99.90
47162;DHT22;32921;53.256;8.198;2022-12-07T11:21:24;4.20;99.90
47162;DHT22;32921;53.256;8.198;2022-12-07T11:26:42;4.20;99.90
47162;DHT22;32921;53.256;8.198;2022-12-07T11:37:51;4.90;99.90
47162;DHT22;32921;53.256;8.198;2022-12-07T11:40:31;5.00;99.90
47162;DHT22;32921;53.256;8.198;2022-12-07T11:43:35;5.10;99.90
47162;DHT22;32921;53.256;8.198;2022-12-07T11:46:15;5.10;99.90
47162;DHT22;32921;53.256;8.198;2022-12-07T11:48:58;5.00;99.90
47162;DHT22;32921;53.256;8.198;2022-12-07T11:51:28;4.90;99.90
47162;DHT22;32921;53.256;8.198;2022-12-07T11:54:14;4.90;99.90
47162;DHT22;32921;53.256;8.198;2022-12-07T11:56:42;4.90;99.90
47162;DHT22;32921;53.256;8.198;2022-12-07T12:04:30;5.20;99.90
47162;DHT22;32921;53.256;8.198;2022-12-07T12:06:58;5.20;99.90
47162;DHT22;32921;53.256;8.198;2022-12-07T12:09:34;5.30;99.90
47162;DHT22;32921;53.256;8.198;2022-12-07T12:20:23;5.50;99.90
47162;DHT22;32921;53.256;8.198;2022-12-07T12:23:07;5.60;99.90
47162;DHT22;32921;53.256;8.198;2022-12-07T12:25:42;5.70;99.90
47162;DHT22;32921;53.256;8.198;2022-12-07T12:28:38;5.70;99.90
47162;DHT22;32921;53.256;8.198;2022-12-07T12:31:12;5.70;99.90
47162;DHT22;32921;53.256;8.198;2022-12-07T12:33:52;5.70;99.90
47162;DHT22;32921;53.256;8.198;2022-12-07T12:36:21;5.70;99.90
47162;DHT22;32921;53.256;8.198;2022-12-07T12:46:55;5.90;99.90
47162;DHT22;32921;53.256;8.198;2022-12-07T12:51:58;5.70;99.90
47162;DHT22;32921;53.256;8.198;2022-12-07T12:54:31;5.60;99.90
47162;DHT22;32921;53.256;8.198;2022-12-07T13:02:31;5.30;99.90
47162;DHT22;32921;53.256;8.198;2022-12-07T13:13:03;5.20;99.90
47162;DHT22;32921;53.256;8.198;2022-12-07T13:15:43;5.10;99.90
47162;DHT22;32921;53.256;8.198;2022-12-07T13:23:37;5.10;99.90
47162;DHT22;32921;53.256;8.198;2022-12-07T13:28:46;5.10;99.90
47162;DHT22;32921;53.256;8.198;2022-12-07T13:31:37;5.00;99.90
47162;DHT22;32921;53.256;8.198;2022-12-07T13:34:26;4.90;99.90
47162;DHT22;32921;53.256;8.198;2022-12-07T13:36:51;4.60;99.90
47162;DHT22;32921;53.256;8.198;2022-12-07T13:39:22;4.30;99.90
47162;DHT22;32921;53.256;8.198;2022-12-07T13:41:56;4.10;99.90
47162;DHT22;32921;53.256;8.198;2022-12-07T13:44:26;3.90;99.90
47162;DHT22;32921;53.256;8.198;2022-12-07T13:47:06;3.80;99.90
47162;DHT22;32921;53.256;8.198;2022-12-07T13:49:46;3.80;99.90
47162;DHT22;32921;53.256;8.198;2022-12-07T13:52:24;3.80;99.90
47162;DHT22;32921;53.256;8.198;2022-12-07T13:57:33;3.70;99.90
47162;DHT22;32921;53.256;8.198;2022-12-07T14:00:04;3.70;99.90
47162;DHT22;32921;53.256;8.198;2022-12-07T14:02:32;3.70;99.90
47162;DHT22;32921;53.256;8.198;2022-12-07T14:05:15;3.60;99.90
47162;DHT22;32921;53.256;8.198;2022-12-07T14:07:59;3.50;99.90
47162;DHT22;32921;53.256;8.198;2022-12-07T14:10:39;3.30;99.90
47162;DHT22;32921;53.256;8.198;2022-12-07T14:15:52;3.10;99.90
47162;DHT22;32921;53.256;8.198;2022-12-07T14:18:30;3.10;99.90
47162;DHT22;32921;53.256;8.198;2022-12-07T14:21:15;3.00;99.90
47162;DHT22;32921;53.256;8.198;2022-12-07T14:23:43;3.00;99.90
47162;DHT22;32921;53.256;8.198;2022-12-07T14:26:19;3.00;99.90
47162;DHT22;32921;53.256;8.198;2022-12-07T14:28:45;3.10;99.90
47162;DHT22;32921;53.256;8.198;2022-12-07T14:31:17;3.40;99.90
47162;DHT22;32921;53.256;8.198;2022-12-07T14:33:43;3.60;99.90
47162;DHT22;32921;53.256;8.198;2022-12-07T14:36:14;3.70;99.90
47162;DHT22;32921;53.256;8.198;2022-12-07T14:38:40;3.70;99.90
47162;DHT22;32921;53.256;8.198;2022-12-07T14:41:13;3.70;99.90
47162;DHT22;32921;53.256;8.198;2022-12-07T14:43:58;3.50;99.90
47162;DHT22;32921;53.256;8.198;2022-12-07T14:46:24;3.40;99.90
47162;DHT22;32921;53.256;8.198;2022-12-07T14:48:50;3.20;99.90
47162;DHT22;32921;53.256;8.198;2022-12-07T14:51:15;3.10;99.90
47162;DHT22;32921;53.256;8.198;2022-12-07T14:53:48;2.90;99.90
47162;DHT22;32921;53.256;8.198;2022-12-07T14:56:14;2.80;99.90
47162;DHT22;32921;53.256;8.198;2022-12-07T14:58:40;2.70;99.90
47162;DHT22;32921;53.256;8.198;2022-12-07T15:01:05;2.60;99.90
47162;DHT22;32921;53.256;8.198;2022-12-07T15:03:31;2.50;99.90
47162;DHT22;32921;53.256;8.198;2022-12-07T15:05:57;2.50;99.90
47162;DHT22;32921;53.256;8.198;2022-12-07T15:08:23;2.40;99.90
47162;DHT22;32921;53.256;8.198;2022-12-07T15:10:49;2.30;99.90
47162;DHT22;32921;53.256;8.198;2022-12-07T15:13:14;2.30;99.90
47162;DHT22;32921;53.256;8.198;2022-12-07T15:15:59;2.20;99.90
47162;DHT22;32921;53.256;8.198;2022-12-07T15:18:25;2.20;99.90
47162;DHT22;32921;53.256;8.198;2022-12-07T15:20:51;2.10;99.90
47162;DHT22;32921;53.256;8.198;2022-12-07T15:23:17;1.90;99.90
47162;DHT22;32921;53.256;8.198;2022-12-07T15:25:45;1.80;99.90
47162;DHT22;32921;53.256;8.198;2022-12-07T15:28:10;1.80;99.90
47162;DHT22;32921;53.256;8.198;2022-12-07T15:30:40;2.10;99.90
47162;DHT22;32921;53.256;8.198;2022-12-07T15:33:08;2.20;99.90
47162;DHT22;32921;53.256;8.198;2022-12-07T15:35:33;2.40;99.90
47162;DHT22;32921;53.256;8.198;2022-12-07T15:38:03;2.40;99.90
47162;DHT22;32921;53.256;8.198;2022-12-07T15:40:31;2.40;99.90
47162;DHT22;32921;53.256;8.198;2022-12-07T15:42:57;2.40;99.90
47162;DHT22;32921;53.256;8.198;2022-12-07T15:45:22;2.50;99.90
47162;DHT22;32921;53.256;8.198;2022-12-07T15:47:48;2.50;99.90
47162;DHT22;32921;53.256;8.198;2022-12-07T15:50:15;2.60;99.90
47162;DHT22;32921;53.256;8.198;2022-12-07T15:52:40;2.70;99.90
47162;DHT22;32921;53.256;8.198;2022-12-07T15:55:07;2.70;99.90
47162;DHT22;32921;53.256;8.198;2022-12-07T15:57:34;2.90;99.90
47162;DHT22;32921;53.256;8.198;2022-12-07T16:00:01;2.90;99.90
47162;DHT22;32921;53.256;8.198;2022-12-07T16:02:26;2.90;99.90
47162;DHT22;32921;53.256;8.198;2022-12-07T16:04:52;2.90;99.90
47162;DHT22;32921;53.256;8.198;2022-12-07T16:07:18;2.90;99.90
47162;DHT22;32921;53.256;8.198;2022-12-07T16:09:45;2.90;99.90
47162;DHT22;32921;53.256;8.198;2022-12-07T16:12:12;2.70;99.90
47162;DHT22;32921;53.256;8.198;2022-12-07T16:14:39;2.40;99.90
47162;DHT22;32921;53.256;8.198;2022-12-07T16:17:05;1.90;99.90
47162;DHT22;32921;53.256;8.198;2022-12-07T16:19:31;1.80;99.90
47162;DHT22;32921;53.256;8.198;2022-12-07T16:21:57;1.60;99.90
47162;DHT22;32921;53.256;8.198;2022-12-07T16:24:23;1.50;99.90
47162;DHT22;32921;53.256;8.198;2022-12-07T16:26:48;1.60;99.90
47162;DHT22;32921;53.256;8.198;2022-12-07T16:29:15;1.70;99.90
47162;DHT22;32921;53.256;8.198;2022-12-07T16:31:41;1.80;99.90
47162;DHT22;32921;53.256;8.198;2022-12-07T16:34:08;1.80;99.90
47162;DHT22;32921;53.256;8.198;2022-12-07T16:36:33;1.50;99.90
47162;DHT22;32921;53.256;8.198;2022-12-07T16:39:00;1.40;99.90
47162;DHT22;32921;53.256;8.198;2022-12-07T16:41:26;1.30;99.90
47162;DHT22;32921;53.256;8.198;2022-12-07T16:43:52;1.40;99.90
47162;DHT22;32921;53.256;8.198;2022-12-07T16:46:17;1.40;99.90
47162;DHT22;32921;53.256;8.198;2022-12-07T16:48:43;1.20;99.90
47162;DHT22;32921;53.256;8.198;2022-12-07T16:51:12;1.30;99.90
47162;DHT22;32921;53.256;8.198;2022-12-07T16:53:39;1.30;99.90
47162;DHT22;32921;53.256;8.198;2022-12-07T16:56:12;1.30;99.90
47162;DHT22;32921;53.256;8.198;2022-12-07T16:58:40;1.40;99.90
47162;DHT22;32921;53.256;8.198;2022-12-07T17:01:31;1.40;99.90
47162;DHT22;32921;53.256;8.198;2022-12-07T17:03:59;1.20;99.90
47162;DHT22;32921;53.256;8.198;2022-12-07T17:06:26;1.20;99.90
47162;DHT22;32921;53.256;8.198;2022-12-07T17:08:53;1.30;99.90
47162;DHT22;32921;53.256;8.198;2022-12-07T17:11:21;1.20;99.90
47162;DHT22;32921;53.256;8.198;2022-12-07T17:13:47;1.20;99.90
47162;DHT22;32921;53.256;8.198;2022-12-07T17:16:32;1.00;99.90
47162;DHT22;32921;53.256;8.198;2022-12-07T17:18:58;1.10;99.90
47162;DHT22;32921;53.256;8.198;2022-12-07T17:21:24;1.00;99.90
47162;DHT22;32921;53.256;8.198;2022-12-07T17:23:50;1.00;99.90
47162;DHT22;32921;53.256;8.198;2022-12-07T17:26:26;0.90;99.90
47162;DHT22;32921;53.256;8.198;2022-12-07T17:28:52;0.80;99.90
47162;DHT22;32921;53.256;8.198;2022-12-07T17:31:21;0.80;99.90
47162;DHT22;32921;53.256;8.198;2022-12-07T17:33:47;0.70;99.90
47162;DHT22;32921;53.256;8.198;2022-12-07T17:36:18;0.90;99.90